Country
Station

 

Weather  for  Chiang Mai  -  Thailand    Thailand

  
19 °C (66 °F)
    
 
 

Current METAR for Chiang Mai is :

VTCC 211730Z 00000KT 9999 FEW040 19/15 Q1013 NOSIG

 

This is a report for Chiang Mai - Thailand.
 
The report was made 29 minutes ago, at 17:30 UTC .
The wind was calm.
 
The temperature was 19 °C (66 °F), with a dew-point at 15 °C (59 °F).
The atmospheric pressure was 1013 hPa (29.91 inHg).
The relative humidity was 77.6%.
 
There were a few clouds at a height of 1219 meters (4000 feet).
 
The overall visibility was greater than 10 kilometers (6.2 miles).
 

 
 
 
 

Country :   A   B   C   D   E   F   G   H   I   J   K   L   M   N   O   P   Q   R   S   T   U   V   W   Y   Z

 

Site Info  |  Disclaimer  |  Credits  |  Privacy
Contact us  |  Add to favorites
© 2013-2018 METARs - All rights reserved